createdAt,value
2023-10-09T00:01:15.254Z,90.75
2023-10-09T00:06:24.980Z,88.86
2023-10-09T00:11:31.253Z,89.24
2023-10-09T00:16:41.672Z,88.85
2023-10-09T00:21:46.058Z,88.98
2023-10-09T00:26:51.124Z,89.09
2023-10-09T00:32:04.668Z,86.57
2023-10-09T00:37:12.014Z,86.29
2023-10-09T00:42:27.161Z,88.91
2023-10-09T00:47:35.476Z,88.03
2023-10-09T00:52:44.950Z,89.71
2023-10-09T00:57:59.797Z,90.94
2023-10-09T01:03:20.117Z,91.55
2023-10-09T01:08:30.373Z,90.37
2023-10-09T01:13:40.559Z,91.46
2023-10-09T01:18:44.410Z,90.96
2023-10-09T01:24:04.980Z,91.84
2023-10-09T01:29:11.806Z,90.55
2023-10-09T01:34:16.570Z,90.26
2023-10-09T01:39:27.681Z,92.13
2023-10-09T01:44:35.853Z,93.13
2023-10-09T01:49:42.824Z,90.23
2023-10-09T01:54:50.392Z,89.57
2023-10-09T01:59:55.671Z,90.78
2023-10-09T02:05:10.546Z,89.25
2023-10-09T02:10:32.751Z,91.19
2023-10-09T02:15:52.512Z,89.10
2023-10-09T02:21:14.635Z,91.06
2023-10-09T02:26:27.324Z,90.79
2023-10-09T02:31:37.577Z,89.30
2023-10-09T02:36:50.277Z,91.14
2023-10-09T02:42:01.438Z,89.54
2023-10-09T02:47:12.960Z,88.93
2023-10-09T02:52:19.925Z,89.61
2023-10-09T02:57:25.264Z,88.52
2023-10-09T03:02:33.023Z,87.67
2023-10-09T03:07:36.604Z,87.64
2023-10-09T03:12:44.480Z,88.75
2023-10-09T03:17:48.919Z,88.71
2023-10-09T03:22:52.617Z,89.20
2023-10-09T03:28:00.148Z,90.13
2023-10-09T03:33:05.456Z,88.66
2023-10-09T03:38:13.286Z,89.10
2023-10-09T03:43:17.897Z,87.27
2023-10-09T03:48:26.974Z,88.56
2023-10-09T03:53:31.285Z,86.65
2023-10-09T03:58:36.019Z,88.67
2023-10-09T04:03:40.106Z,90.08
2023-10-09T04:08:48.569Z,91.04
2023-10-09T04:13:54.333Z,92.22
2023-10-09T04:18:58.578Z,89.11
2023-10-09T04:24:22.371Z,88.78
2023-10-09T04:29:38.682Z,88.54
2023-10-09T04:34:49.611Z,87.13
2023-10-09T04:40:03.020Z,88.10
2023-10-09T04:45:22.863Z,87.18
2023-10-09T04:50:46.920Z,87.31
2023-10-09T04:55:56.354Z,87.34
2023-10-09T05:01:13.971Z,86.85
2023-10-09T05:06:34.188Z,87.59
2023-10-09T05:11:51.772Z,85.99
2023-10-09T05:16:56.857Z,85.09
2023-10-09T05:22:06.007Z,86.73
2023-10-09T05:27:18.872Z,87.18
2023-10-09T05:32:30.890Z,87.32
2023-10-09T05:37:36.321Z,87.78
2023-10-09T05:42:45.519Z,87.52
2023-10-09T05:47:54.606Z,86.29
2023-10-09T05:53:10.573Z,84.76
2023-10-09T05:58:31.160Z,85.56
2023-10-09T06:03:49.992Z,85.77
2023-10-09T06:09:29.827Z,83.91
2023-10-09T06:20:27.641Z,84.53
2023-10-09T06:25:34.883Z,86.70
2023-10-09T06:30:45.717Z,85.79
2023-10-09T06:35:56.567Z,83.25
2023-10-09T06:41:17.220Z,86.04
2023-10-09T06:46:34.339Z,85.05
2023-10-09T06:51:43.043Z,81.99
2023-10-09T06:57:02.862Z,80.16
2023-10-09T07:02:22.569Z,80.16
2023-10-09T07:07:27.130Z,82.17
2023-10-09T07:12:33.974Z,79.32
2023-10-09T07:17:47.150Z,80.87
2023-10-09T07:23:14.742Z,82.22
2023-10-09T07:28:30.284Z,79.35
2023-10-09T07:33:52.191Z,78.43
2023-10-09T07:38:57.340Z,79.32
2023-10-09T07:44:20.236Z,80.09
2023-10-09T07:49:26.510Z,79.45
2023-10-09T07:54:34.241Z,78.59
2023-10-09T07:59:42.407Z,78.06
2023-10-09T08:04:50.319Z,77.01
2023-10-09T08:10:09.985Z,77.82
2023-10-09T08:15:30.593Z,78.66
2023-10-09T08:20:52.360Z,77.17
2023-10-09T08:26:11.650Z,73.65
2023-10-09T08:31:35.787Z,73.84
2023-10-09T08:36:39.660Z,73.58
2023-10-09T08:41:44.543Z,72.06
2023-10-09T08:46:47.976Z,70.43
2023-10-09T08:51:53.711Z,69.43
2023-10-09T08:56:59.583Z,68.03
2023-10-09T09:02:04.670Z,66.71
2023-10-09T09:07:09.059Z,65.83
2023-10-09T09:12:16.562Z,64.42
2023-10-09T09:17:28.785Z,63.57
2023-10-09T09:22:57.585Z,62.56
2023-10-09T09:28:11.219Z,60.66
2023-10-09T09:33:28.086Z,59.78
2023-10-09T09:38:43.005Z,60.47
2023-10-09T09:43:47.971Z,59.28
2023-10-09T09:48:55.334Z,57.59
2023-10-09T09:53:58.972Z,59.09
2023-10-09T09:59:07.894Z,58.62
2023-10-09T10:04:21.915Z,57.91
2023-10-09T10:09:41.780Z,57.67
2023-10-09T10:14:58.497Z,58.65
2023-10-09T10:20:26.517Z,60.34
2023-10-09T10:25:42.795Z,59.75
2023-10-09T10:30:52.191Z,57.77
2023-10-09T10:35:57.231Z,56.62
2023-10-09T10:41:12.723Z,53.30
2023-10-09T10:46:26.055Z,51.09
2023-10-09T10:51:39.009Z,51.15
2023-10-09T10:56:46.387Z,49.92
2023-10-09T11:02:14.963Z,50.85
2023-10-09T11:07:29.183Z,50.27
2023-10-09T11:12:41.317Z,49.02
2023-10-09T11:17:46.888Z,48.96
2023-10-09T11:23:13.421Z,48.92
2023-10-09T11:29:24.599Z,48.52
2023-10-09T11:34:37.147Z,48.19
2023-10-09T11:39:53.647Z,46.14
2023-10-09T11:45:05.412Z,45.63
2023-10-09T11:50:14.352Z,46.01
2023-10-09T11:55:17.643Z,46.91
2023-10-09T12:00:30.380Z,47.06
2023-10-09T12:05:35.019Z,46.44
2023-10-09T12:10:39.520Z,45.65
2023-10-09T12:15:48.069Z,45.79
2023-10-09T12:20:56.437Z,44.30
2023-10-09T12:26:00.152Z,44.92
2023-10-09T12:31:04.866Z,44.23
2023-10-09T12:36:08.155Z,43.83
2023-10-09T12:41:20.602Z,43.90
2023-10-09T12:46:26.865Z,44.39
2023-10-09T12:51:32.131Z,44.79
2023-10-09T12:56:38.868Z,44.99
2023-10-09T13:01:46.911Z,44.10
2023-10-09T13:06:53.582Z,43.61
2023-10-09T13:12:00.866Z,41.93
2023-10-09T13:17:11.147Z,41.21
2023-10-09T13:22:14.988Z,42.36
2023-10-09T13:27:22.842Z,41.96
2023-10-09T13:32:27.724Z,41.41
2023-10-09T13:37:33.240Z,41.22
2023-10-09T13:42:36.803Z,41.08
2023-10-09T13:47:41.590Z,41.18
2023-10-09T13:52:45.071Z,41.35
2023-10-09T13:57:48.401Z,41.30
2023-10-09T14:02:53.672Z,41.66
2023-10-09T14:08:01.350Z,42.30
2023-10-09T14:13:13.241Z,41.91
2023-10-09T14:18:17.887Z,41.96
2023-10-09T14:23:23.085Z,41.71
2023-10-09T14:28:30.124Z,42.80
2023-10-09T14:33:37.866Z,43.86
2023-10-09T14:38:42.746Z,43.68
2023-10-09T14:43:46.127Z,42.10
2023-10-09T14:48:50.811Z,43.31
2023-10-09T14:53:54.334Z,42.35
2023-10-09T14:58:59.424Z,42.33
2023-10-09T15:04:04.936Z,41.39
2023-10-09T15:09:10.465Z,41.52
2023-10-09T15:14:15.220Z,42.71
2023-10-09T15:19:20.206Z,42.08
2023-10-09T15:24:23.791Z,42.57
2023-10-09T15:29:31.677Z,43.33
2023-10-09T15:34:36.695Z,43.78
2023-10-09T15:39:40.074Z,43.41
2023-10-09T15:44:43.379Z,43.53
2023-10-09T15:49:48.300Z,43.67
2023-10-09T15:54:51.959Z,44.25
2023-10-09T15:59:55.309Z,50.02
2023-10-09T16:05:01.323Z,56.23
2023-10-09T16:10:06.699Z,58.38
2023-10-09T16:15:11.492Z,61.09
2023-10-09T16:20:23.069Z,60.33
2023-10-09T16:25:27.777Z,60.43
2023-10-09T16:30:33.488Z,60.54
2023-10-09T16:35:39.153Z,63.07
2023-10-09T16:40:48.065Z,61.47
2023-10-09T16:45:51.940Z,65.16
2023-10-09T16:50:57.525Z,68.40
2023-10-09T16:56:10.538Z,68.05
2023-10-09T17:01:15.237Z,73.78
2023-10-09T17:06:20.272Z,72.48
2023-10-09T17:11:24.216Z,74.10
2023-10-09T17:16:30.260Z,73.94
2023-10-09T17:21:37.445Z,76.12
2023-10-09T17:26:42.601Z,75.73
2023-10-09T17:31:45.933Z,76.26
2023-10-09T17:36:50.672Z,79.38
2023-10-09T17:41:54.361Z,78.75
2023-10-09T17:46:57.661Z,81.69
2023-10-09T17:52:02.395Z,80.58
2023-10-09T17:57:05.728Z,81.28
2023-10-09T18:02:08.954Z,82.70
2023-10-09T18:07:17.334Z,83.44
2023-10-09T18:12:22.782Z,84.36
2023-10-09T18:17:28.052Z,83.31
2023-10-09T18:22:32.815Z,84.98
2023-10-09T18:27:36.184Z,86.81
2023-10-09T18:32:39.597Z,85.72
2023-10-09T18:37:44.342Z,85.81
2023-10-09T18:42:49.169Z,85.09
2023-10-09T18:47:54.384Z,89.31
2023-10-09T18:53:03.490Z,87.74
2023-10-09T18:58:10.738Z,87.60
2023-10-09T19:03:17.415Z,86.76
2023-10-09T19:08:22.222Z,86.66
2023-10-09T19:13:27.068Z,85.96
2023-10-09T19:18:30.434Z,84.38
2023-10-09T19:23:35.133Z,83.94
2023-10-09T19:28:39.723Z,84.73
2023-10-09T19:33:43.757Z,85.79
2023-10-09T19:38:51.725Z,85.61
2023-10-09T19:43:55.258Z,83.41
2023-10-09T19:48:58.548Z,84.65
2023-10-09T19:54:03.193Z,83.04
2023-10-09T19:59:07.113Z,85.77
2023-10-09T20:04:10.348Z,87.38
2023-10-09T20:09:15.953Z,84.73
2023-10-09T20:14:21.533Z,85.25
2023-10-09T20:19:26.199Z,83.90
2023-10-09T20:24:31.938Z,85.39
2023-10-09T20:29:36.297Z,84.44
2023-10-09T20:34:39.582Z,85.55
2023-10-09T20:39:44.397Z,85.16
2023-10-09T20:44:47.625Z,87.88
2023-10-09T20:49:51.611Z,85.26
2023-10-09T20:54:56.434Z,82.26
2023-10-09T21:00:00.117Z,83.35
2023-10-09T21:05:03.713Z,83.20
2023-10-09T21:10:09.507Z,83.15
2023-10-09T21:15:15.092Z,84.80
2023-10-09T21:20:18.447Z,83.53
2023-10-09T21:25:23.528Z,84.35
2023-10-09T21:30:27.987Z,84.54
2023-10-09T21:35:31.379Z,85.96
2023-10-09T21:40:37.667Z,84.66
2023-10-09T21:45:46.167Z,84.33
2023-10-09T21:50:49.746Z,82.71
2023-10-09T21:56:04.268Z,82.83
2023-10-09T22:01:09.449Z,83.74
2023-10-09T22:06:12.761Z,82.67
2023-10-09T22:11:19.524Z,82.19
2023-10-09T22:16:23.871Z,85.47
2023-10-09T22:21:29.627Z,83.88
2023-10-09T22:26:34.364Z,84.71
2023-10-09T22:31:40.166Z,84.81
2023-10-09T22:36:54.302Z,87.16
2023-10-09T22:42:02.008Z,86.61
2023-10-09T22:47:09.379Z,86.19
2023-10-09T22:52:15.971Z,85.35
2023-10-09T22:57:22.116Z,87.29
2023-10-09T23:02:44.165Z,85.89
2023-10-09T23:08:00.306Z,86.19
2023-10-09T23:13:16.671Z,86.11
2023-10-09T23:18:33.763Z,87.22
2023-10-09T23:23:41.544Z,87.50
2023-10-09T23:28:52.369Z,86.91
2023-10-09T23:33:57.711Z,86.36
2023-10-09T23:39:13.619Z,87.21
2023-10-09T23:44:21.687Z,87.04
2023-10-09T23:49:25.842Z,87.13
2023-10-09T23:54:29.318Z,87.42
2023-10-09T23:59:40.683Z,87.09
